Sharpsburg, MD (21782)

4:08 PM EDT on September 30, 2016 (GMT -0400)
SharpsburgWeather.com | | Change Station

Elev 480 ft 39.45 °N, 77.76 °W | Updated 1 second ago

Overcast
Overcast
60.0 °F
Feels Like 60.0 °F
N
0.0
Wind Variable Wind from NE
Gusts 0.0 mph

Today
High -- | Low -- °F
--% Chance of Precip.
Yesterday
High -- | Low -- °F
Precip. -- in
Pressure 30.14 in
Visibility 1.5 miles
Clouds Overcast 600 ft
Dew Point 59 °F
Humidity 95%
Rainfall 0.40 in
Snow Depth Not available.
7:06 AM 6:54 PM
Waning Crescent, 0% visible
METAR KMRB 301953Z 03008KT 1 1/2SM -RA BR OVC006 14/14 A3014 RMK AO2 RAB11 CIG 004V010 SLP205 P0000 T01440139
Pressure 30.14 in
Visibility 1.5 miles
Clouds Overcast 600 ft
Dew Point 59 °F
Humidity 95%
Rainfall 0.40 in
Snow Depth Not available.
7:06 AM 6:54 PM
Waning Crescent, 0% visible
METAR KMRB 301953Z 03008KT 1 1/2SM -RA BR OVC006 14/14 A3014 RMK AO2 RAB11 CIG 004V010 SLP205 P0000 T01440139

10-Day Weather Forecast

Almanac

Astronomy

Sep. 30, 2016 Rise Set
Actual Time
Civil Twilight
Nautical Twilight
Astronomical Twilight
Moon
Length of Visible Light
Length of Day
Tomorrow will be .
, % of the Moon is Illuminated

Today's Extremes

State Highs State Lows

Community

WunderPhotos

Upload Photos

1,942,762 photos uploaded!

WunderBlog® & News

Nearby

Air Quality

  Air Quality AQ Index Pollutant
Not available.

Snow Depth

Station Depth Elevation

Earthquake Activity

City Distance Mag. Time & Date
Minimum magnitude displayed is 2.5.

Coastal Water Temperatures

Place Temperature

Stations

Nearby Weather Stations

Station Location Temp. Windchill Dew Point Humidity Wind Precip. Elev Updated Type
                   

Watches & Warnings

There are currently no watches in effect.